createdAt,value
2023-04-13T00:00:32.605Z,9.45
2023-04-13T00:03:19.981Z,9.02
2023-04-13T00:05:52.269Z,9.48
2023-04-13T00:08:23.218Z,10.27
2023-04-13T00:10:53.587Z,9.55
2023-04-13T00:13:24.896Z,10.90
2023-04-13T00:15:55.875Z,11.25
2023-04-13T00:18:25.452Z,11.18
2023-04-13T00:20:53.882Z,11.68
2023-04-13T00:23:22.411Z,12.00
2023-04-13T00:25:51.343Z,12.38
2023-04-13T00:28:19.522Z,11.43
2023-04-13T00:30:49.467Z,11.05
2023-04-13T00:33:17.679Z,12.57
2023-04-13T00:35:46.253Z,11.73
2023-04-13T00:38:14.909Z,12.68
2023-04-13T00:40:43.403Z,13.32
2023-04-13T00:43:11.676Z,11.88
2023-04-13T00:45:40.284Z,12.38
2023-04-13T00:48:11.781Z,12.73
2023-04-13T00:50:41.104Z,12.40
2023-04-13T00:53:13.525Z,11.40
2023-04-13T00:55:43.166Z,11.68
2023-04-13T00:58:13.447Z,12.77
2023-04-13T01:00:43.377Z,10.80
2023-04-13T01:03:13.579Z,12.43
2023-04-13T01:05:51.771Z,13.02
2023-04-13T01:08:26.093Z,12.32
2023-04-13T01:10:58.868Z,12.50
2023-04-13T01:13:32.134Z,13.13
2023-04-13T01:16:04.306Z,13.75
2023-04-13T01:18:38.045Z,12.40
2023-04-13T01:21:08.296Z,13.85
2023-04-13T01:23:52.104Z,13.27
2023-04-13T01:26:22.812Z,11.60
2023-04-13T01:28:53.913Z,13.52
2023-04-13T01:31:22.636Z,12.82
2023-04-13T01:33:51.385Z,13.85
2023-04-13T01:36:20.978Z,13.15
2023-04-13T01:38:49.217Z,14.05
2023-04-13T01:41:18.582Z,13.02
2023-04-13T01:43:47.118Z,12.38
2023-04-13T01:46:17.182Z,12.65
2023-04-13T01:48:50.506Z,11.32
2023-04-13T01:51:21.783Z,11.25
2023-04-13T01:53:57.986Z,11.77
2023-04-13T01:56:28.095Z,11.73
2023-04-13T01:59:00.111Z,10.73
2023-04-13T02:01:30.055Z,10.85
2023-04-13T02:03:58.521Z,11.27
2023-04-13T02:06:27.504Z,12.20
2023-04-13T02:08:55.907Z,13.75
2023-04-13T02:11:24.435Z,11.57
2023-04-13T02:13:53.123Z,13.20
2023-04-13T02:16:22.111Z,12.77
2023-04-13T02:18:51.670Z,10.88
2023-04-13T02:21:20.276Z,11.02
2023-04-13T02:23:48.527Z,12.48
2023-04-13T02:26:17.365Z,12.45
2023-04-13T02:28:46.446Z,12.32
2023-04-13T02:31:16.863Z,11.23
2023-04-13T02:33:46.425Z,11.77
2023-04-13T02:36:17.376Z,13.43
2023-04-13T02:38:45.944Z,11.30
2023-04-13T02:41:14.514Z,12.70
2023-04-13T02:43:43.618Z,12.43
2023-04-13T02:46:12.341Z,13.00
2023-04-13T02:48:40.684Z,11.55
2023-04-13T02:51:09.926Z,12.02
2023-04-13T02:53:39.627Z,12.70
2023-04-13T02:56:09.721Z,12.68
2023-04-13T02:58:37.909Z,11.73
2023-04-13T03:01:07.873Z,13.13
2023-04-13T03:03:36.663Z,12.20
2023-04-13T03:06:05.599Z,13.52
2023-04-13T03:08:33.821Z,13.02
2023-04-13T03:11:04.019Z,13.00
2023-04-13T03:13:32.281Z,12.63
2023-04-13T03:16:02.053Z,12.77
2023-04-13T03:18:30.271Z,10.80
2023-04-13T03:20:58.759Z,12.88
2023-04-13T03:23:26.889Z,12.95
2023-04-13T03:25:55.366Z,12.60
2023-04-13T03:28:25.015Z,12.02
2023-04-13T03:30:53.680Z,14.40
2023-04-13T03:33:21.981Z,13.18
2023-04-13T03:35:50.665Z,12.15
2023-04-13T03:38:18.977Z,12.05
2023-04-13T03:40:47.437Z,12.38
2023-04-13T03:43:15.638Z,12.57
2023-04-13T03:45:45.666Z,12.55
2023-04-13T03:48:14.340Z,12.90
2023-04-13T03:50:42.944Z,13.07
2023-04-13T03:53:11.250Z,13.63
2023-04-13T03:55:39.889Z,12.88
2023-04-13T03:58:08.435Z,12.10
2023-04-13T04:00:36.905Z,14.02
2023-04-13T04:03:06.714Z,11.88
2023-04-13T04:05:35.441Z,12.27
2023-04-13T04:08:03.687Z,11.15
2023-04-13T04:10:32.340Z,13.18
2023-04-13T04:13:00.710Z,12.13
2023-04-13T04:15:29.198Z,13.05
2023-04-13T04:17:57.568Z,12.48
2023-04-13T04:20:27.508Z,12.80
2023-04-13T04:23:00.984Z,12.02
2023-04-13T04:25:29.594Z,12.55
2023-04-13T04:27:58.175Z,12.45
2023-04-13T04:30:29.724Z,12.23
2023-04-13T04:32:59.080Z,11.68
2023-04-13T04:35:33.288Z,12.38
2023-04-13T04:38:03.732Z,12.07
2023-04-13T04:40:35.771Z,13.80
2023-04-13T04:43:05.211Z,12.70
2023-04-13T04:45:36.243Z,13.32
2023-04-13T04:48:05.783Z,12.50
2023-04-13T04:50:37.560Z,11.60
2023-04-13T04:53:06.032Z,12.43
2023-04-13T04:55:34.888Z,12.23
2023-04-13T04:58:03.482Z,11.32
2023-04-13T05:00:32.035Z,11.82
2023-04-13T05:03:01.105Z,11.52
2023-04-13T05:05:30.718Z,10.70
2023-04-13T05:08:00.396Z,11.13
2023-04-13T05:10:30.128Z,10.80
2023-04-13T05:12:58.437Z,10.30
2023-04-13T05:15:28.397Z,10.52
2023-04-13T05:17:57.393Z,10.23
2023-04-13T05:20:28.007Z,9.35
2023-04-13T05:22:57.816Z,10.90
2023-04-13T05:25:27.806Z,9.73
2023-04-13T05:27:56.318Z,11.15
2023-04-13T05:30:24.866Z,9.80
2023-04-13T05:32:53.163Z,8.82
2023-04-13T05:35:23.505Z,9.60
2023-04-13T05:37:51.870Z,9.57
2023-04-13T05:40:20.534Z,10.57
2023-04-13T05:42:50.178Z,8.93
2023-04-13T05:45:18.817Z,10.40
2023-04-13T05:47:47.016Z,9.88
2023-04-13T05:50:15.515Z,9.50
2023-04-13T05:52:43.776Z,9.38
2023-04-13T05:55:12.761Z,9.32
2023-04-13T05:57:41.067Z,9.43
2023-04-13T06:00:12.670Z,9.43
2023-04-13T06:02:42.065Z,9.50
2023-04-13T06:05:13.757Z,10.10
2023-04-13T06:07:44.827Z,9.80
2023-04-13T06:10:15.094Z,8.82
2023-04-13T06:12:43.639Z,8.55
2023-04-13T06:15:13.882Z,9.90
2023-04-13T06:17:42.534Z,8.88
2023-04-13T06:20:11.821Z,8.35
2023-04-13T06:22:40.280Z,9.32
2023-04-13T06:25:10.946Z,9.35
2023-04-13T06:27:39.346Z,8.27
2023-04-13T06:30:09.288Z,9.55
2023-04-13T06:32:39.333Z,9.13
2023-04-13T06:35:08.990Z,9.57
2023-04-13T06:37:38.139Z,8.95
2023-04-13T06:40:12.920Z,7.60
2023-04-13T06:42:41.647Z,8.07
2023-04-13T06:45:11.333Z,9.00
2023-04-13T06:47:41.802Z,9.95
2023-04-13T06:50:13.527Z,8.80
2023-04-13T06:52:43.946Z,10.00
2023-04-13T06:55:12.823Z,8.40
2023-04-13T06:57:41.615Z,9.45
2023-04-13T07:00:28.140Z,9.80
2023-04-13T07:03:00.352Z,9.40
2023-04-13T07:05:29.423Z,9.13
2023-04-13T07:07:58.347Z,8.52
2023-04-13T07:10:27.289Z,8.10
2023-04-13T07:12:55.686Z,9.43
2023-04-13T07:15:24.250Z,9.10
2023-04-13T07:17:52.743Z,9.20
2023-04-13T07:20:23.292Z,7.50
2023-04-13T07:22:51.511Z,9.25
2023-04-13T07:25:21.668Z,10.15
2023-04-13T07:27:50.194Z,9.25
2023-04-13T07:30:18.945Z,9.45
2023-04-13T07:32:47.369Z,8.02
2023-04-13T07:35:15.903Z,8.13
2023-04-13T07:37:46.795Z,8.25
2023-04-13T07:40:15.575Z,8.25
2023-04-13T07:42:45.308Z,13.35
2023-04-13T07:45:15.526Z,9.77
2023-04-13T07:47:43.858Z,11.45
2023-04-13T07:50:13.638Z,9.43
2023-04-13T07:52:41.894Z,8.55
2023-04-13T07:55:12.225Z,9.85
2023-04-13T07:57:40.545Z,9.50
2023-04-13T08:00:10.410Z,8.95
2023-04-13T08:02:38.765Z,8.15
2023-04-13T08:05:09.105Z,8.73
2023-04-13T08:07:37.617Z,8.18
2023-04-13T08:10:06.938Z,7.32
2023-04-13T08:12:36.746Z,5.60
2023-04-13T08:15:05.927Z,7.30
2023-04-13T08:17:34.342Z,5.63
2023-04-13T08:20:02.892Z,6.97
2023-04-13T08:22:31.157Z,6.07
2023-04-13T08:24:59.740Z,5.57
2023-04-13T08:27:28.339Z,5.43
2023-04-13T08:30:01.879Z,5.75
2023-04-13T08:32:30.387Z,3.95
2023-04-13T08:34:59.098Z,4.28
2023-04-13T08:37:29.446Z,5.13
2023-04-13T08:40:00.543Z,4.68
2023-04-13T08:42:29.352Z,4.35
2023-04-13T08:45:00.503Z,4.03
2023-04-13T08:47:29.673Z,3.47
2023-04-13T08:49:59.524Z,3.47
2023-04-13T08:52:28.875Z,3.08
2023-04-13T08:54:59.223Z,3.22
2023-04-13T08:57:27.947Z,3.53
2023-04-13T08:59:59.486Z,3.38
2023-04-13T09:02:33.627Z,4.53
2023-04-13T09:05:06.399Z,4.15
2023-04-13T09:07:37.361Z,3.97
2023-04-13T09:10:09.705Z,5.10
2023-04-13T09:12:38.038Z,4.82
2023-04-13T09:15:10.462Z,4.25
2023-04-13T09:17:39.156Z,3.85
2023-04-13T09:20:15.880Z,4.50
2023-04-13T09:22:44.189Z,5.22
2023-04-13T09:25:23.701Z,3.88
2023-04-13T09:27:56.159Z,3.42
2023-04-13T09:30:28.169Z,3.60
2023-04-13T09:33:05.904Z,3.80
2023-04-13T09:35:35.821Z,3.95
2023-04-13T09:38:08.497Z,3.10
2023-04-13T09:40:39.065Z,4.05
2023-04-13T09:43:09.628Z,4.32
2023-04-13T09:45:40.792Z,4.45
2023-04-13T09:48:18.595Z,4.40
2023-04-13T09:50:47.395Z,3.83
2023-04-13T09:53:15.709Z,3.83
2023-04-13T09:55:47.401Z,4.30
2023-04-13T09:58:17.741Z,3.78
2023-04-13T10:00:47.773Z,4.40
2023-04-13T10:03:19.267Z,3.33
2023-04-13T10:05:58.565Z,3.70
2023-04-13T10:11:02.019Z,3.70
2023-04-13T10:13:34.695Z,3.67
2023-04-13T10:16:24.459Z,4.22
2023-04-13T10:19:01.929Z,3.88
2023-04-13T10:21:35.305Z,4.25
2023-04-13T10:24:11.464Z,3.33
2023-04-13T10:26:41.650Z,4.03
2023-04-13T10:29:11.606Z,4.18
2023-04-13T10:31:43.289Z,3.35
2023-04-13T10:34:11.724Z,3.50
2023-04-13T10:36:43.172Z,3.53
2023-04-13T10:39:12.139Z,3.22
2023-04-13T10:41:40.663Z,3.72
2023-04-13T10:44:10.583Z,3.55
2023-04-13T10:46:39.449Z,3.80
2023-04-13T10:49:09.188Z,3.47
2023-04-13T10:51:41.643Z,3.33
2023-04-13T10:54:10.654Z,3.38
2023-04-13T10:56:40.234Z,3.90
2023-04-13T10:59:08.761Z,2.83
2023-04-13T11:01:40.002Z,3.50
2023-04-13T11:04:14.057Z,2.90
2023-04-13T11:06:46.344Z,2.42
2023-04-13T11:09:17.157Z,3.38
2023-04-13T11:11:52.961Z,3.38
2023-04-13T11:14:24.177Z,2.88
2023-04-13T11:16:58.574Z,2.55
2023-04-13T11:19:28.373Z,3.53
2023-04-13T11:21:58.153Z,3.03
2023-04-13T11:24:33.864Z,2.83
2023-04-13T11:27:02.378Z,2.70
2023-04-13T11:29:30.627Z,3.20
2023-04-13T11:31:59.276Z,2.75
2023-04-13T11:34:29.848Z,2.50
2023-04-13T11:37:01.477Z,3.10
2023-04-13T11:39:32.212Z,2.70
2023-04-13T11:42:06.960Z,2.53
2023-04-13T11:44:36.740Z,2.95
2023-04-13T11:47:06.114Z,2.83
2023-04-13T11:49:36.066Z,3.10
2023-04-13T11:52:05.164Z,2.60
2023-04-13T11:54:33.686Z,3.05
2023-04-13T11:57:02.624Z,2.92
2023-04-13T11:59:30.966Z,3.55
2023-04-13T12:02:03.719Z,3.53
2023-04-13T12:04:41.271Z,2.60
2023-04-13T12:07:14.567Z,2.65
2023-04-13T12:09:56.042Z,3.22
2023-04-13T12:20:07.081Z,3.40
2023-04-13T12:22:51.458Z,2.88
2023-04-13T12:25:23.584Z,3.22
2023-04-13T12:27:53.696Z,3.20
2023-04-13T12:30:23.068Z,2.60
2023-04-13T12:32:54.075Z,3.08
2023-04-13T12:35:23.931Z,3.13
2023-04-13T12:37:52.671Z,3.05
2023-04-13T12:40:21.261Z,3.78
2023-04-13T12:42:50.129Z,2.70
2023-04-13T12:45:18.403Z,3.25
2023-04-13T12:47:47.293Z,4.25
2023-04-13T12:50:15.528Z,2.80
2023-04-13T12:52:45.604Z,3.38
2023-04-13T12:55:13.790Z,3.55
2023-04-13T12:57:42.337Z,3.63
2023-04-13T13:00:12.829Z,4.47
2023-04-13T13:02:41.611Z,4.65
2023-04-13T13:05:10.381Z,4.63
2023-04-13T13:07:39.232Z,4.47
2023-04-13T13:10:25.897Z,4.75
2023-04-13T13:12:57.451Z,4.55
2023-04-13T13:15:25.733Z,4.93
2023-04-13T13:17:54.307Z,4.63
2023-04-13T13:20:22.910Z,4.00
2023-04-13T13:22:51.398Z,4.05
2023-04-13T13:25:21.037Z,4.75
2023-04-13T13:30:20.722Z,4.43
2023-04-13T13:32:49.418Z,5.20
2023-04-13T13:35:17.753Z,4.63
2023-04-13T13:37:46.257Z,4.43
2023-04-13T13:40:14.872Z,4.78
2023-04-13T13:42:52.082Z,4.82
2023-04-13T13:45:21.199Z,5.05
2023-04-13T13:47:53.163Z,4.50
2023-04-13T13:50:22.523Z,4.82
2023-04-13T13:53:03.193Z,4.93
2023-04-13T13:55:33.042Z,3.67
2023-04-13T13:58:03.427Z,5.15
2023-04-13T14:00:32.368Z,6.25
2023-04-13T14:03:01.350Z,10.55
2023-04-13T14:05:29.735Z,7.47
2023-04-13T14:07:58.218Z,6.93
2023-04-13T14:10:26.535Z,6.97
2023-04-13T14:12:55.886Z,5.68
2023-04-13T14:15:25.715Z,6.13
2023-04-13T14:18:09.023Z,6.80
2023-04-13T14:20:40.132Z,7.40
2023-04-13T14:23:09.794Z,6.30
2023-04-13T14:25:39.664Z,5.97
2023-04-13T14:28:09.287Z,6.70
2023-04-13T14:30:40.182Z,6.80
2023-04-13T14:33:08.961Z,6.47
2023-04-13T14:35:38.744Z,5.95
2023-04-13T14:38:08.288Z,7.05
2023-04-13T14:40:36.692Z,6.70
2023-04-13T14:43:05.238Z,6.65
2023-04-13T14:45:33.468Z,5.68
2023-04-13T14:48:03.640Z,5.88
2023-04-13T14:50:32.222Z,5.57
2023-04-13T14:53:03.654Z,5.78
2023-04-13T14:55:31.984Z,6.07
2023-04-13T14:58:01.633Z,5.93
2023-04-13T15:00:39.616Z,5.63
2023-04-13T15:03:10.919Z,5.45
2023-04-13T15:05:40.093Z,4.82
2023-04-13T15:08:11.652Z,5.45
2023-04-13T15:10:42.464Z,6.15
2023-04-13T15:13:11.816Z,4.97
2023-04-13T15:15:41.441Z,5.10
2023-04-13T15:18:11.542Z,5.10
2023-04-13T15:20:39.868Z,5.65
2023-04-13T15:23:08.543Z,4.70
2023-04-13T15:25:38.445Z,4.90
2023-04-13T15:28:07.316Z,4.85
2023-04-13T15:30:35.920Z,5.53
2023-04-13T15:33:04.717Z,5.05
2023-04-13T15:35:36.375Z,4.10
2023-04-13T15:38:05.505Z,5.22
2023-04-13T15:40:35.376Z,4.95
2023-04-13T15:43:05.133Z,5.70
2023-04-13T15:45:33.586Z,4.63
2023-04-13T15:48:03.067Z,3.97
2023-04-13T15:50:31.409Z,5.70
2023-04-13T15:53:01.663Z,5.50
2023-04-13T15:55:30.064Z,4.93
2023-04-13T15:57:58.661Z,4.97
2023-04-13T16:00:27.742Z,6.47
2023-04-13T16:02:57.230Z,5.35
2023-04-13T16:05:26.037Z,5.20
2023-04-13T16:07:54.969Z,4.53
2023-04-13T16:10:24.665Z,5.45
2023-04-13T16:12:54.908Z,6.50
2023-04-13T16:15:24.177Z,7.82
2023-04-13T16:17:56.853Z,11.05
2023-04-13T16:20:28.388Z,10.70
2023-04-13T16:22:59.444Z,20.23
2023-04-13T16:25:29.161Z,13.13
2023-04-13T16:27:57.765Z,13.65
2023-04-13T16:30:28.338Z,21.45
2023-04-13T16:32:56.800Z,24.73
2023-04-13T16:35:25.269Z,37.80
2023-04-13T16:37:53.800Z,41.33
2023-04-13T16:40:22.216Z,48.78
2023-04-13T16:42:52.230Z,60.50
2023-04-13T16:45:20.936Z,51.83
2023-04-13T16:47:50.043Z,43.53
2023-04-13T16:50:18.461Z,53.40
2023-04-13T16:52:47.283Z,49.28
2023-04-13T16:55:15.720Z,49.30
2023-04-13T16:57:45.464Z,50.85
2023-04-13T17:00:16.204Z,48.10
2023-04-13T17:02:44.933Z,46.33
2023-04-13T17:05:15.126Z,45.83
2023-04-13T17:07:46.890Z,42.35
2023-04-13T17:10:17.499Z,39.88
2023-04-13T17:12:46.610Z,38.67
2023-04-13T17:15:16.316Z,36.75
2023-04-13T17:17:44.832Z,33.25
2023-04-13T17:20:16.378Z,33.50
2023-04-13T17:22:46.116Z,31.55
2023-04-13T17:25:14.624Z,30.10
2023-04-13T17:27:43.415Z,27.52
2023-04-13T17:30:13.025Z,29.35
2023-04-13T17:32:43.609Z,26.60
2023-04-13T17:35:12.249Z,25.35
2023-04-13T17:37:40.900Z,25.02
2023-04-13T17:40:10.604Z,23.67
2023-04-13T17:42:39.147Z,24.35
2023-04-13T17:45:08.675Z,20.63
2023-04-13T17:47:37.431Z,21.48
2023-04-13T17:50:08.395Z,21.05
2023-04-13T17:52:37.123Z,19.85
2023-04-13T17:55:06.153Z,18.50
2023-04-13T17:57:35.738Z,17.10
2023-04-13T18:00:04.983Z,17.90
2023-04-13T18:02:33.716Z,17.08
2023-04-13T18:05:02.376Z,17.23
2023-04-13T18:07:32.654Z,16.77
2023-04-13T18:10:00.804Z,15.65
2023-04-13T18:12:29.353Z,15.32
2023-04-13T18:14:57.704Z,15.38
2023-04-13T18:17:26.400Z,15.63
2023-04-13T18:19:54.879Z,14.02
2023-04-13T18:22:23.408Z,14.63
2023-04-13T18:24:52.945Z,13.18
2023-04-13T18:27:23.193Z,12.73
2023-04-13T18:29:54.972Z,11.60
2023-04-13T18:32:23.762Z,11.52
2023-04-13T18:34:52.302Z,12.65
2023-04-13T18:37:21.122Z,11.35
2023-04-13T18:39:49.341Z,11.18
2023-04-13T18:42:19.125Z,9.98
2023-04-13T18:44:47.326Z,9.93
2023-04-13T18:47:18.749Z,10.55
2023-04-13T18:49:48.740Z,10.75
2023-04-13T18:52:17.436Z,10.30
2023-04-13T18:54:45.750Z,10.43
2023-04-13T18:57:14.176Z,9.32
2023-04-13T18:59:44.315Z,8.90
2023-04-13T19:02:13.145Z,10.18
2023-04-13T19:04:42.101Z,9.52
2023-04-13T19:07:10.641Z,10.15
2023-04-13T19:09:39.488Z,11.32
2023-04-13T19:12:08.800Z,28.95
2023-04-13T19:14:37.023Z,52.67
2023-04-13T19:17:06.881Z,43.50
2023-04-13T19:19:35.075Z,37.38
2023-04-13T19:22:03.484Z,32.13
2023-04-13T19:24:31.778Z,28.65
2023-04-13T19:27:00.426Z,26.15
2023-04-13T19:29:30.297Z,21.10
2023-04-13T19:31:58.995Z,21.08
2023-04-13T19:34:28.543Z,20.33
2023-04-13T19:36:57.027Z,16.13
2023-04-13T19:39:25.278Z,16.10
2023-04-13T19:41:54.010Z,15.32
2023-04-13T19:44:22.424Z,14.35
2023-04-13T19:46:51.042Z,13.98
2023-04-13T19:49:19.501Z,14.27
2023-04-13T19:51:49.388Z,10.95
2023-04-13T19:54:17.641Z,10.65
2023-04-13T19:56:46.380Z,10.40
2023-04-13T19:59:14.822Z,9.80
2023-04-13T20:01:45.974Z,8.60
2023-04-13T20:04:14.518Z,8.98
2023-04-13T20:06:43.016Z,9.07
2023-04-13T20:09:14.512Z,8.02
2023-04-13T20:11:42.987Z,8.02
2023-04-13T20:14:12.533Z,7.55
2023-04-13T20:16:41.321Z,8.18
2023-04-13T20:19:11.173Z,6.80
2023-04-13T20:21:42.001Z,6.88
2023-04-13T20:24:10.402Z,6.53
2023-04-13T20:26:40.688Z,7.43
2023-04-13T20:29:08.994Z,7.20
2023-04-13T20:31:37.784Z,7.05
2023-04-13T20:34:09.545Z,5.97
2023-04-13T20:36:38.649Z,6.82
2023-04-13T20:39:07.136Z,6.10
2023-04-13T20:41:36.288Z,6.97
2023-04-13T20:44:09.775Z,6.20
2023-04-13T20:46:41.787Z,6.50
2023-04-13T20:49:11.862Z,6.10
2023-04-13T20:51:40.463Z,6.32
2023-04-13T20:54:08.705Z,4.72
2023-04-13T20:56:37.717Z,6.20
2023-04-13T20:59:07.688Z,5.72
2023-04-13T21:01:39.756Z,5.15
2023-04-13T21:04:07.985Z,6.80
2023-04-13T21:06:37.349Z,6.35
2023-04-13T21:09:06.086Z,6.97
2023-04-13T21:11:34.735Z,7.15
2023-04-13T21:14:04.026Z,7.43
2023-04-13T21:16:34.150Z,5.43
2023-04-13T21:19:02.488Z,6.30
2023-04-13T21:21:32.827Z,6.13
2023-04-13T21:24:01.405Z,7.07
2023-04-13T21:26:30.184Z,6.72
2023-04-13T21:28:58.477Z,6.18
2023-04-13T21:31:27.127Z,6.53
2023-04-13T21:33:59.220Z,6.78
2023-04-13T21:38:59.584Z,6.07
2023-04-13T21:41:28.208Z,6.53
2023-04-13T21:43:57.291Z,7.30
2023-04-13T21:46:26.106Z,6.72
2023-04-13T21:48:54.353Z,7.45
2023-04-13T21:51:24.426Z,7.53
2023-04-13T21:53:53.278Z,6.55
2023-04-13T21:56:21.788Z,7.30
2023-04-13T21:58:50.037Z,7.47
2023-04-13T22:01:19.283Z,6.63
2023-04-13T22:03:48.535Z,7.35
2023-04-13T22:06:17.291Z,8.00
2023-04-13T22:08:49.678Z,8.18
2023-04-13T22:11:18.176Z,7.70
2023-04-13T22:13:46.545Z,6.95
2023-04-13T22:16:15.219Z,8.63
2023-04-13T22:18:43.843Z,8.68
2023-04-13T22:21:12.413Z,7.72
2023-04-13T22:23:40.741Z,8.43
2023-04-13T22:26:10.652Z,10.02
2023-04-13T22:28:38.864Z,9.35
2023-04-13T22:31:08.600Z,9.20
2023-04-13T22:33:37.724Z,10.15
2023-04-13T22:36:07.427Z,8.80
2023-04-13T22:38:35.646Z,10.43
2023-04-13T22:41:07.573Z,9.93
2023-04-13T22:43:37.438Z,10.75
2023-04-13T22:46:06.400Z,10.40
2023-04-13T22:48:35.076Z,11.88
2023-04-13T22:51:03.838Z,10.60
2023-04-13T22:53:32.314Z,10.05
2023-04-13T22:56:01.222Z,11.80
2023-04-13T22:58:29.564Z,10.98
2023-04-13T23:01:00.426Z,11.35
2023-04-13T23:03:28.810Z,9.95
2023-04-13T23:05:57.357Z,10.68
2023-04-13T23:08:25.773Z,10.05
2023-04-13T23:10:54.227Z,9.65
2023-04-13T23:13:22.384Z,10.00
2023-04-13T23:15:50.934Z,10.23
2023-04-13T23:18:20.444Z,9.90
2023-04-13T23:20:49.284Z,9.20
2023-04-13T23:23:17.422Z,10.50
2023-04-13T23:25:50.248Z,9.27
2023-04-13T23:28:18.660Z,10.90
2023-04-13T23:30:47.227Z,9.57
2023-04-13T23:33:15.587Z,9.75
2023-04-13T23:35:52.586Z,10.70
2023-04-13T23:38:20.852Z,10.52
2023-04-13T23:40:49.310Z,10.55
2023-04-13T23:43:17.467Z,9.82
2023-04-13T23:45:46.341Z,10.43
2023-04-13T23:48:14.526Z,9.88
2023-04-13T23:50:43.524Z,9.43
2023-04-13T23:53:13.190Z,9.98
2023-04-13T23:55:41.706Z,9.30
2023-04-13T23:58:09.841Z,8.63
